ΕΜΥ, Εθνική Μετεωρολογική Υπηρεσία - Δελτία Καιρού, Προγνώσεις

ΑΕΡΟΝΑΥΤΙΛΙΑ

GREEK AIRPORTS CODES

LGAV 181050Z 01010KT 9000 DZ SCT010 SCT020 BKN070 04/01 Q1019 RMK NOSIG=

EUROPEAN AIRPORTS CODES

EKCH 181049Z 20010KT 9000 OVC008 01/M01 Q1016 TEMPO 4000=